Aeroporto :
LOGIN :

Iscrizione | Disclaimer

   EN    FR    IT 

 










Sommario :    VFR   VFR Marginale   IFR   IFR Intensivo   IFR Molto Intensivo
Visibilità : 
Base nubi : 
>= 8 km
>= 3000ft
5 / 8 km
1000 / 3000 ft
1500m / 5 km
500 / 1000 ft
800 / 1500m
200 / 500 ft
< 800m
< 200 ft
Simboli :   Temporali  Nebbia  Neve Forte  Precipitazioni Forti  Vento > 20 kt
SIGMETs :   Varie  Temporali  Ghiacco  Turbolenza  Onda orograficha  Ceneri Vulcaniche






- Altitudine del aeroporto : 3 ft
- Codice IATA : DHR


EHKD - Den Helder De Kooy

ULTIMO METAR :
  • 031825Z AUTO 28004KT 9999 NCD 05/M00 Q1018 BLU

METARs OBSOLETI :
  • 031755Z AUTO 29008KT 260V320 9999 BKN340 06/01 Q1018 BLU
  • 031725Z AUTO 29010KT 250V320 9999 NCD 07/M00 Q1018 BLU
  • 031703Z AUTO 29011KT 250V330 9999 FEW029 07/01 Q1018 BLU
  • 031655Z AUTO 29011KT 260V330 9999 NCD 08/01 Q1018 BLU 28010KT 9999 FEW030
  • 031625Z AUTO 30010KT 270V360 9999 FEW030 08/01 Q1018 BLU 28010KT 9999 FEW023
  • 031555Z AUTO 30010KT 260V340 9999 FEW029 08/01 Q1017 BLU 28010KT 9999 FEW023
  • 031538Z AUTO 29012KT 260V330 9999 SCT026 SCT029 08/02 Q1017 BLU 28010KT 9999 FEW023

TAF TAF EHKD
Valido dal 03 a 17 ore il 04 a 05 ore UTC


031639Z 0317/0405 29010KT 9999 FEW030
BECMG 0319/0321 21007KT



MetMap, La meteo Aeronautica in un colpo d'occhio ! - Copyright ORBIFLY Dicembre 2007 - Disclaimer

ORBIFLY MET'MAP TEAM :

Programmazione e sviluppo : Alexandra Zaïnal
Concezione : Baudouin d'Aumeries
Aiuto per la programmazione : Marc-Olivier Méhu
Supporto tecnico e logistico : Manuel Goepfert
Aiuto per la traduzione : Arnaldo La Scala

Contatto : metmap@orbifly.com




FONTI E CREDITI :

   NOAA